Time;durP1;ratioP1;P1;durP2;ratioP2;P2;SDS_P1;SDS_P2;PMS_P1;PMS_P2;Temp;Humidity;BMP_temperature;BMP_pressure;BME280_temperature;BME280_humidity;BME280_pressure;Samples;Min_cycle;Max_cycle;Signal;HPM_P1;HPM_P2
2022/12/23 00:01:47;;;;;;;1.57;1.10;;;8.50;99.90;;;;;;5029586;28;20448;-54
2022/12/23 00:04:16;;;;;;;2.90;1.45;;;8.50;99.90;;;;;;5018757;28;21037;-50
2022/12/23 00:06:45;;;;;;;1.20;0.93;;;8.50;99.90;;;;;;5025707;28;20194;-51
2022/12/23 00:09:13;;;;;;;1.07;0.80;;;8.50;99.90;;;;;;5027859;28;20837;-49
2022/12/23 00:15:04;;;;;;;2.23;1.43;;;8.50;99.90;;;;;;5027609;28;20838;-50
2022/12/23 00:17:25;;;;;;;1.10;0.90;;;8.50;99.90;;;;;;5023424;28;20490;-50
2022/12/23 00:19:54;;;;;;;1.47;1.03;;;8.50;99.90;;;;;;5028796;28;20645;-50
2022/12/23 00:23:03;;;;;;;1.00;0.90;;;8.50;99.90;;;;;;5028394;28;20523;-51
2022/12/23 00:25:12;;;;;;;1.30;1.20;;;8.50;99.90;;;;;;5021377;28;20463;-50
2022/12/23 00:28:00;;;;;;;2.20;1.00;;;8.50;99.90;;;;;;5029001;28;20466;-51
2022/12/23 00:30:28;;;;;;;3.60;1.00;;;8.50;99.90;;;;;;5028552;28;20436;-50
2022/12/23 00:32:57;;;;;;;1.80;0.97;;;8.50;99.90;;;;;;5026744;28;20475;-49
2022/12/23 00:35:25;;;;;;;1.27;0.90;;;8.50;99.90;;;;;;5028469;28;20464;-50
2022/12/23 00:37:54;;;;;;;1.20;1.10;;;8.50;99.90;;;;;;5028660;28;20440;-51
2022/12/23 00:43:10;;;;;;;3.70;1.10;;;8.50;99.90;;;;;;5026738;28;20685;-50
2022/12/23 00:45:38;;;;;;;1.67;1.20;;;8.50;99.90;;;;;;5028295;28;20463;-51
2022/12/23 00:50:53;;;;;;;1.00;0.90;;;8.50;99.90;;;;;;5028538;28;20545;-51
2022/12/23 00:53:22;;;;;;;1.03;0.93;;;8.50;99.90;;;;;;5027851;28;20471;-51
2022/12/23 00:55:50;;;;;;;3.13;1.20;;;8.50;99.90;;;;;;5029036;28;20975;-49
2022/12/23 00:58:21;;;;;;;0.93;0.83;;;8.50;99.90;;;;;;5028675;28;20467;-49
2022/12/23 01:06:21;;;;;;;1.20;1.00;;;8.50;99.90;;;;;;5027941;28;20474;-52
2022/12/23 01:08:50;;;;;;;0.85;0.85;;;8.50;99.90;;;;;;5026054;28;21082;-50
2022/12/23 01:11:19;;;;;;;1.67;0.90;;;8.50;99.90;;;;;;5028343;28;20657;-51
2022/12/23 01:13:51;;;;;;;1.10;1.00;;;8.50;99.90;;;;;;5027624;28;20555;-50
2022/12/23 01:16:19;;;;;;;1.80;0.90;;;8.50;99.90;;;;;;5028002;28;20448;-51
2022/12/23 01:18:48;;;;;;;1.20;1.10;;;8.50;99.90;;;;;;5027037;28;20939;-49
2022/12/23 01:21:19;;;;;;;1.03;0.93;;;8.50;99.90;;;;;;5027923;28;20972;-50
2022/12/23 01:23:48;;;;;;;1.63;1.27;;;8.50;99.90;;;;;;5014821;28;21016;-49
2022/12/23 01:26:16;;;;;;;1.00;0.90;;;8.50;99.90;;;;;;5013284;28;20453;-50
2022/12/23 01:28:45;;;;;;;1.27;0.83;;;8.50;99.90;;;;;;5025799;28;20494;-52
2022/12/23 01:31:15;;;;;;;1.30;0.93;;;8.50;99.90;;;;;;5027308;28;20440;-49
2022/12/23 01:33:44;;;;;;;0.77;0.70;;;8.50;99.90;;;;;;5026377;28;20512;-51
2022/12/23 01:36:13;;;;;;;1.47;1.10;;;8.50;99.90;;;;;;5027616;28;20455;-49
2022/12/23 01:38:42;;;;;;;1.20;0.80;;;8.50;99.90;;;;;;5025824;28;20529;-50
2022/12/23 01:42:42;;;;;;;0.90;0.80;;;8.50;99.90;;;;;;5027275;28;20456;-50
2022/12/23 01:44:37;;;;;;;1.90;1.07;;;8.50;99.90;;;;;;5043042;28;20486;-49
2022/12/23 01:47:12;;;;;;;1.00;0.83;;;8.50;99.90;;;;;;5027199;28;20436;-51
2022/12/23 01:49:41;;;;;;;1.30;0.97;;;8.50;99.90;;;;;;5028997;28;20451;-52
2022/12/23 01:52:11;;;;;;;0.80;0.80;;;8.50;99.90;;;;;;5025879;28;20908;-50
2022/12/23 01:54:41;;;;;;;1.10;1.00;;;8.50;99.90;;;;;;5023505;28;20701;-50
2022/12/23 01:57:09;;;;;;;1.25;0.73;;;8.50;99.90;;;;;;5027020;28;20444;-50
2022/12/23 02:05:16;;;;;;;1.13;1.03;;;8.50;99.90;;;;;;5025073;28;20217;-51
2022/12/23 02:10:39;;;;;;;1.17;1.08;;;8.50;99.90;;;;;;5026119;28;20448;-50
2022/12/23 02:13:13;;;;;;;1.70;1.00;;;8.50;99.90;;;;;;5026435;28;20228;-50
2022/12/23 02:18:53;;;;;;;1.70;1.17;;;8.50;99.90;;;;;;5011985;28;20860;-51
2022/12/23 02:21:52;;;;;;;1.07;0.97;;;8.50;99.90;;;;;;5007114;28;20549;-50
2022/12/23 02:25:08;;;;;;;1.00;0.90;;;8.50;99.90;;;;;;4999663;28;20477;-51
2022/12/23 02:27:55;;;;;;;1.60;1.07;;;8.50;99.90;;;;;;5006640;28;20895;-50
2022/12/23 02:30:43;;;;;;;1.37;1.07;;;8.50;99.90;;;;;;5006957;28;20456;-49
2022/12/23 02:33:37;;;;;;;1.50;0.80;;;8.50;99.90;;;;;;5000081;28;20563;-51
2022/12/23 02:36:28;;;;;;;0.90;0.67;;;8.50;99.90;;;;;;5004075;28;20468;-50
2022/12/23 02:39:06;;;;;;;1.23;1.10;;;8.50;99.90;;;;;;5005725;28;20502;-51
2022/12/23 02:41:42;;;;;;;1.52;1.17;;;8.50;99.90;;;;;;5014018;28;20542;-51
2022/12/23 02:44:18;;;;;;;2.17;1.30;;;8.50;99.90;;;;;;4998978;28;20577;-52
2022/12/23 02:46:51;;;;;;;2.00;1.10;;;8.50;99.90;;;;;;5006583;28;20433;-50
2022/12/23 02:49:24;;;;;;;1.30;1.20;;;8.50;99.90;;;;;;5011502;28;20452;-51
2022/12/23 02:51:56;;;;;;;1.40;1.17;;;8.50;99.90;;;;;;5006124;28;20963;-51
2022/12/23 02:54:30;;;;;;;1.43;1.03;;;8.50;99.90;;;;;;5006434;28;20813;-51
2022/12/23 02:57:00;;;;;;;1.40;1.23;;;8.50;99.90;;;;;;5006122;28;20430;-51
2022/12/23 02:59:35;;;;;;;2.33;1.00;;;8.50;99.90;;;;;;5006351;28;20459;-51
2022/12/23 03:02:05;;;;;;;1.73;0.97;;;8.50;99.90;;;;;;4998861;28;20960;-52
2022/12/23 03:04:34;;;;;;;2.80;1.17;;;8.50;99.90;;;;;;5005213;28;20479;-52
2022/12/23 03:07:03;;;;;;;0.80;0.67;;;8.50;99.90;;;;;;5005469;28;20471;-50
2022/12/23 03:09:41;;;;;;;1.03;0.93;;;8.50;99.90;;;;;;5010407;28;20454;-51
2022/12/23 03:12:19;;;;;;;0.80;0.80;;;8.50;99.90;;;;;;5006772;28;20528;-51
2022/12/23 03:15:04;;;;;;;2.30;0.90;;;8.50;99.90;;;;;;4952321;23;20571;-70
2022/12/23 03:17:49;;;;;;;1.03;0.90;;;8.50;99.90;;;;;;4944994;29;20494;-71
2022/12/23 03:20:25;;;;;;;1.10;1.00;;;8.50;99.90;;;;;;4925465;29;20477;-71
2022/12/23 03:23:00;;;;;;;3.20;1.30;;;8.50;99.90;;;;;;4938657;28;20503;-71
2022/12/23 03:25:33;;;;;;;1.20;1.10;;;8.50;99.90;;;;;;4941863;28;20566;-70
2022/12/23 03:28:09;;;;;;;1.13;1.03;;;8.50;99.90;;;;;;4947177;28;20518;-70
2022/12/23 03:30:42;;;;;;;3.43;1.00;;;8.50;99.90;;;;;;4943770;28;20448;-70
2022/12/23 03:33:15;;;;;;;1.77;1.23;;;8.50;99.90;;;;;;4954750;28;20992;-72
2022/12/23 03:35:53;;;;;;;1.30;1.20;;;8.50;99.90;;;;;;4947359;28;20495;-72
2022/12/23 03:38:22;;;;;;;0.70;0.70;;;8.50;99.90;;;;;;4949290;28;20509;-70
2022/12/23 03:40:56;;;;;;;1.10;0.93;;;8.50;99.90;;;;;;4946761;28;20451;-71
2022/12/23 03:43:30;;;;;;;2.35;0.98;;;8.50;99.90;;;;;;4953811;28;20491;-71
2022/12/23 03:46:03;;;;;;;1.00;0.90;;;8.50;99.90;;;;;;4943346;29;20211;-73
2022/12/23 03:48:36;;;;;;;1.20;0.80;;;8.50;99.90;;;;;;4961238;28;20474;-73
2022/12/23 03:51:11;;;;;;;2.17;1.07;;;8.50;99.90;;;;;;4952513;28;20440;-71
2022/12/23 03:53:42;;;;;;;1.30;1.10;;;8.50;99.90;;;;;;4970302;28;20462;-70
2022/12/23 03:56:14;;;;;;;1.10;1.00;;;8.50;99.90;;;;;;4937892;28;20215;-70
2022/12/23 03:58:48;;;;;;;1.23;1.10;;;8.50;99.90;;;;;;4935454;28;20499;-72
2022/12/23 04:01:25;;;;;;;1.53;1.23;;;8.50;99.90;;;;;;4958653;28;20462;-72
2022/12/23 04:04:01;;;;;;;0.95;0.80;;;8.50;99.90;;;;;;4959288;28;20481;-70
2022/12/23 04:06:36;;;;;;;0.90;0.80;;;8.50;99.90;;;;;;4962151;28;20202;-72
2022/12/23 04:09:06;;;;;;;1.07;0.97;;;8.50;99.90;;;;;;4953544;28;20484;-71
2022/12/23 04:11:36;;;;;;;0.97;0.87;;;8.50;99.90;;;;;;4949445;28;20449;-71
2022/12/23 04:14:04;;;;;;;1.20;1.10;;;8.50;99.90;;;;;;4962419;28;20482;-72
2022/12/23 04:16:33;;;;;;;1.00;0.85;;;8.50;99.90;;;;;;4961865;28;20452;-72
2022/12/23 04:19:03;;;;;;;1.13;1.03;;;8.50;99.90;;;;;;4945318;28;20219;-70
2022/12/23 04:21:31;;;;;;;1.40;1.30;;;8.50;99.90;;;;;;4957293;28;20446;-73
2022/12/23 04:24:00;;;;;;;1.33;1.20;;;8.50;99.90;;;;;;4954572;28;20530;-71
2022/12/23 04:26:28;;;;;;;1.23;1.13;;;8.50;99.90;;;;;;4939277;28;21127;-72
2022/12/23 04:28:56;;;;;;;1.80;1.07;;;8.50;99.90;;;;;;4954100;28;20791;-72
2022/12/23 04:31:25;;;;;;;3.03;1.05;;;8.50;99.90;;;;;;4944311;28;20985;-72
2022/12/23 04:33:53;;;;;;;1.23;0.97;;;8.50;99.90;;;;;;4956643;28;20755;-70
2022/12/23 04:36:23;;;;;;;0.80;0.60;;;8.50;99.90;;;;;;4951849;28;20476;-73
2022/12/23 04:38:52;;;;;;;0.80;0.80;;;8.50;99.90;;;;;;4971975;28;20498;-71
2022/12/23 04:41:20;;;;;;;1.88;0.98;;;8.50;99.90;;;;;;4946180;28;20816;-72
2022/12/23 04:43:49;;;;;;;1.23;1.13;;;8.50;99.90;;;;;;4964469;28;20618;-72
2022/12/23 04:46:20;;;;;;;1.70;0.80;;;8.50;99.90;;;;;;4955773;28;20460;-70
2022/12/23 04:48:49;;;;;;;1.00;0.90;;;8.50;99.90;;;;;;4947353;28;20487;-71
2022/12/23 04:51:17;;;;;;;4.50;1.20;;;8.50;99.90;;;;;;4949548;28;20518;-70
2022/12/23 04:53:47;;;;;;;1.48;0.90;;;8.50;99.90;;;;;;4943799;28;20931;-73
2022/12/23 04:56:15;;;;;;;1.40;1.30;;;8.50;99.90;;;;;;4949012;28;20513;-72
2022/12/23 04:58:43;;;;;;;3.07;1.03;;;8.50;99.90;;;;;;4956620;28;20565;-72
2022/12/23 05:01:12;;;;;;;1.50;1.30;;;8.50;99.90;;;;;;4978805;28;20509;-72
2022/12/23 05:03:41;;;;;;;1.57;1.07;;;8.50;99.90;;;;;;4951928;28;20987;-71
2022/12/23 05:06:10;;;;;;;1.23;1.00;;;8.50;99.90;;;;;;4972052;28;20994;-71
2022/12/23 05:08:38;;;;;;;2.30;0.83;;;8.50;99.90;;;;;;4952623;28;20875;-72
2022/12/23 05:11:08;;;;;;;1.15;0.90;;;8.50;99.90;;;;;;4956515;28;20463;-71
2022/12/23 05:13:36;;;;;;;1.50;1.20;;;8.50;99.90;;;;;;4962683;28;20296;-70
2022/12/23 05:16:06;;;;;;;1.43;0.80;;;8.50;99.90;;;;;;4956292;28;20267;-70
2022/12/23 05:18:34;;;;;;;0.70;0.70;;;8.50;99.90;;;;;;4947986;28;20575;-72
2022/12/23 05:21:03;;;;;;;1.10;0.90;;;8.50;99.90;;;;;;4946167;28;20452;-71
2022/12/23 05:23:31;;;;;;;1.00;0.80;;;8.50;99.90;;;;;;4951036;28;20975;-71
2022/12/23 05:25:59;;;;;;;1.00;0.80;;;8.50;99.90;;;;;;4947526;28;20778;-71
2022/12/23 05:28:30;;;;;;;1.57;1.43;;;8.50;99.90;;;;;;4954405;28;20274;-71
2022/12/23 05:30:59;;;;;;;1.63;0.80;;;8.50;99.90;;;;;;4947394;28;20447;-71
2022/12/23 05:33:28;;;;;;;0.90;0.80;;;8.50;99.90;;;;;;4954541;28;20475;-71
2022/12/23 05:35:57;;;;;;;1.67;1.40;;;8.50;99.90;;;;;;4947224;28;20451;-70
2022/12/23 05:38:25;;;;;;;0.67;0.67;;;8.50;99.90;;;;;;4956657;28;20927;-71
2022/12/23 05:40:54;;;;;;;1.30;0.97;;;8.50;99.90;;;;;;4952230;28;20539;-71
2022/12/23 05:43:23;;;;;;;1.37;1.10;;;8.50;99.90;;;;;;4956198;28;20490;-71
2022/12/23 05:45:53;;;;;;;0.90;0.80;;;8.50;99.90;;;;;;4946380;28;20490;-73
2022/12/23 05:48:21;;;;;;;1.43;1.00;;;8.50;99.90;;;;;;4947186;28;20463;-70
2022/12/23 05:50:50;;;;;;;1.53;0.90;;;8.50;99.90;;;;;;4948673;28;20746;-71
2022/12/23 05:53:22;;;;;;;1.10;0.90;;;8.50;99.90;;;;;;4962025;28;20809;-70
2022/12/23 05:55:51;;;;;;;1.73;1.17;;;8.50;99.90;;;;;;4941994;28;20449;-71
2022/12/23 05:58:19;;;;;;;1.20;1.10;;;8.50;99.90;;;;;;4958801;28;20562;-71
2022/12/23 06:00:47;;;;;;;1.13;0.67;;;8.50;99.90;;;;;;4954310;28;20558;-70
2022/12/23 06:03:17;;;;;;;1.80;0.90;;;8.50;99.90;;;;;;4955477;28;20533;-73
2022/12/23 06:05:50;;;;;;;2.23;0.97;;;8.50;99.90;;;;;;4951662;28;21004;-75
2022/12/23 06:08:22;;;;;;;1.37;0.80;;;8.50;99.90;;;;;;4953183;28;20504;-73
2022/12/23 06:10:50;;;;;;;0.77;0.70;;;8.50;99.90;;;;;;4951823;28;20622;-74
2022/12/23 06:13:18;;;;;;;0.80;0.70;;;8.50;99.90;;;;;;4957237;28;20466;-73
2022/12/23 06:15:47;;;;;;;3.30;1.37;;;8.50;99.90;;;;;;4958187;28;20435;-74
2022/12/23 06:18:17;;;;;;;1.47;1.17;;;8.50;99.90;;;;;;4948130;28;20583;-75
2022/12/23 06:20:46;;;;;;;1.10;0.68;;;8.50;99.90;;;;;;4948278;28;20424;-73
2022/12/23 06:23:14;;;;;;;1.63;1.00;;;8.50;99.90;;;;;;4951636;28;20215;-75
2022/12/23 06:25:43;;;;;;;1.30;1.08;;;8.50;99.90;;;;;;4949716;28;21128;-75
2022/12/23 06:28:11;;;;;;;1.30;0.80;;;8.50;99.90;;;;;;4951453;28;20219;-74
2022/12/23 06:30:39;;;;;;;0.97;0.87;;;8.50;99.90;;;;;;4956690;28;20436;-75
2022/12/23 06:33:08;;;;;;;0.97;0.80;;;8.50;99.90;;;;;;4954484;28;20483;-74
2022/12/23 06:35:37;;;;;;;0.70;0.60;;;8.50;99.90;;;;;;4944707;28;20460;-74
2022/12/23 06:38:06;;;;;;;1.57;0.90;;;8.50;99.90;;;;;;4942398;28;20235;-74
2022/12/23 06:40:39;;;;;;;0.90;0.70;;;8.50;99.90;;;;;;4943722;28;20462;-74
2022/12/23 06:43:09;;;;;;;1.00;0.90;;;8.50;99.90;;;;;;4948984;28;21016;-75
2022/12/23 06:45:38;;;;;;;1.10;0.83;;;8.50;99.90;;;;;;4964812;28;20444;-74
2022/12/23 06:48:07;;;;;;;1.15;0.80;;;8.50;99.90;;;;;;4957379;28;20521;-74
2022/12/23 06:50:37;;;;;;;1.07;0.77;;;8.50;99.90;;;;;;4958883;28;20290;-73
2022/12/23 06:53:05;;;;;;;1.20;0.80;;;8.50;99.90;;;;;;4941084;28;20566;-74
2022/12/23 06:55:33;;;;;;;1.10;0.80;;;8.50;99.90;;;;;;4943358;28;20458;-76
2022/12/23 06:58:02;;;;;;;1.13;0.70;;;8.50;99.90;;;;;;4964548;28;20462;-75
2022/12/23 07:00:30;;;;;;;2.55;0.82;;;8.50;99.90;;;;;;4954021;28;20449;-74
2022/12/23 07:02:59;;;;;;;0.80;0.67;;;8.50;99.90;;;;;;4944426;28;20215;-73
2022/12/23 07:05:28;;;;;;;1.23;0.80;;;8.50;99.90;;;;;;4953670;28;20451;-75
2022/12/23 07:08:06;;;;;;;1.10;0.80;;;8.50;99.90;;;;;;4940367;28;20459;-73
2022/12/23 07:10:34;;;;;;;0.97;0.70;;;8.50;99.90;;;;;;4953574;28;20230;-74
2022/12/23 07:13:03;;;;;;;0.70;0.70;;;8.50;99.90;;;;;;4945276;28;20471;-74
2022/12/23 07:15:31;;;;;;;1.10;1.00;;;8.50;99.90;;;;;;4951553;28;20528;-74
2022/12/23 07:18:00;;;;;;;1.00;0.60;;;8.50;99.90;;;;;;4956003;28;20471;-74
2022/12/23 07:20:28;;;;;;;1.27;0.90;;;8.50;99.90;;;;;;4953006;28;20891;-74
2022/12/23 07:22:57;;;;;;;1.25;1.15;;;8.50;99.90;;;;;;4962640;28;20909;-73
2022/12/23 07:25:27;;;;;;;0.82;0.80;;;8.50;99.90;;;;;;4945049;28;20386;-74
2022/12/23 07:31:15;;;;;;;1.00;0.90;;;8.50;99.90;;;;;;4793712;24;20522;-70
2022/12/23 08:11:19;;;;;;;1.00;0.60;;;8.50;99.90;;;;;;4810345;29;20280;-70
2022/12/23 08:13:48;;;;;;;1.50;0.85;;;8.50;99.90;;;;;;4818709;29;20498;-70
2022/12/23 08:16:16;;;;;;;0.80;0.50;;;8.50;99.90;;;;;;4803399;29;20225;-69
2022/12/23 08:18:45;;;;;;;1.00;0.80;;;8.50;99.90;;;;;;4817513;29;20494;-68
2022/12/23 08:21:15;;;;;;;0.73;0.73;;;8.50;99.90;;;;;;4818111;29;21164;-69
2022/12/23 08:23:45;;;;;;;1.00;0.90;;;8.50;99.90;;;;;;4806970;29;21195;-68
2022/12/23 08:26:16;;;;;;;2.70;1.10;;;8.50;99.90;;;;;;4806902;29;20205;-68
2022/12/23 08:28:46;;;;;;;2.20;0.93;;;8.50;99.90;;;;;;4797755;29;20486;-70
2022/12/23 08:31:16;;;;;;;1.13;0.83;;;8.50;99.90;;;;;;4800515;29;20831;-71
2022/12/23 08:33:48;;;;;;;2.07;1.20;;;8.50;99.90;;;;;;4799389;29;20512;-70
2022/12/23 08:36:19;;;;;;;1.83;1.45;;;8.50;99.90;;;;;;4801504;29;20459;-70
2022/12/23 08:38:52;;;;;;;0.93;0.93;;;8.50;99.90;;;;;;4802192;29;20230;-70
2022/12/23 08:41:23;;;;;;;2.40;0.97;;;8.50;99.90;;;;;;4801728;29;20695;-70
2022/12/23 08:43:54;;;;;;;0.93;0.82;;;8.50;99.90;;;;;;4800241;29;20994;-70
2022/12/23 08:46:23;;;;;;;0.75;0.75;;;8.50;99.90;;;;;;4804329;29;20432;-70
2022/12/23 08:48:53;;;;;;;1.97;0.93;;;8.50;99.90;;;;;;4799006;29;20710;-70
2022/12/23 08:51:23;;;;;;;1.23;0.70;;;8.50;99.90;;;;;;4795380;29;20494;-70
2022/12/23 08:53:55;;;;;;;1.75;1.00;;;8.50;99.90;;;;;;4798265;29;20578;-70
2022/12/23 08:56:30;;;;;;;1.13;0.95;;;8.50;99.90;;;;;;4813780;29;20201;-70
2022/12/23 08:59:00;;;;;;;1.10;1.00;;;8.50;99.90;;;;;;4809844;29;20760;-70
2022/12/23 09:01:30;;;;;;;1.08;0.98;;;8.50;99.90;;;;;;4781370;29;20462;-69
2022/12/23 09:04:01;;;;;;;1.20;1.03;;;8.50;99.90;;;;;;4802762;29;20330;-70
2022/12/23 09:06:33;;;;;;;0.80;0.73;;;8.50;99.90;;;;;;4801630;29;20484;-70
2022/12/23 09:09:03;;;;;;;1.15;0.70;;;8.50;99.90;;;;;;4802764;29;20526;-70
2022/12/23 09:11:32;;;;;;;1.20;0.80;;;8.50;99.90;;;;;;4818663;29;20305;-70
2022/12/23 09:14:01;;;;;;;1.23;0.80;;;8.50;99.90;;;;;;4801171;29;20230;-70
2022/12/23 09:16:30;;;;;;;0.80;0.80;;;8.50;99.90;;;;;;4787849;29;20284;-70
2022/12/23 09:18:58;;;;;;;0.87;0.87;;;8.50;99.90;;;;;;4784388;29;20250;-70
2022/12/23 09:21:27;;;;;;;1.10;1.00;;;8.50;99.90;;;;;;4796809;29;20505;-70
2022/12/23 09:23:55;;;;;;;1.27;0.90;;;8.50;99.90;;;;;;4792187;29;20913;-70
2022/12/23 09:26:26;;;;;;;0.93;0.70;;;8.50;99.90;;;;;;4798693;29;20286;-72
2022/12/23 09:28:55;;;;;;;1.47;1.07;;;8.50;99.90;;;;;;4812476;29;20945;-72
2022/12/23 09:31:26;;;;;;;0.80;0.67;;;8.50;99.90;;;;;;4831774;29;20554;-72
2022/12/23 09:34:03;;;;;;;1.30;1.00;;;8.50;99.90;;;;;;4815031;29;20493;-72
2022/12/23 09:36:32;;;;;;;1.40;1.30;;;8.50;99.90;;;;;;4831835;29;20550;-70
2022/12/23 09:39:00;;;;;;;0.87;0.87;;;8.50;99.90;;;;;;4819856;29;20489;-70
2022/12/23 09:41:48;;;;;;;1.80;0.90;;;8.50;99.90;;;;;;4819031;29;20984;-70
2022/12/23 09:44:40;;;;;;;1.27;0.93;;;8.50;99.90;;;;;;4820053;29;20838;-70
2022/12/23 09:47:14;;;;;;;1.47;0.77;;;8.50;99.90;;;;;;4820245;29;20473;-70
2022/12/23 09:49:50;;;;;;;1.33;0.70;;;8.50;99.90;;;;;;4830791;29;20529;-70
2022/12/23 09:52:25;;;;;;;1.00;0.90;;;8.50;99.90;;;;;;4826450;29;20537;-70
2022/12/23 09:54:55;;;;;;;1.27;1.00;;;8.50;99.90;;;;;;4818785;29;20200;-70
2022/12/23 09:57:34;;;;;;;2.43;1.40;;;8.50;99.90;;;;;;4827014;29;20458;-70
2022/12/23 10:00:07;;;;;;;1.33;0.93;;;8.50;99.90;;;;;;4834018;29;20895;-68
2022/12/23 10:02:55;;;;;;;1.10;1.00;;;8.50;99.90;;;;;;4818581;29;20911;-73
2022/12/23 10:05:35;;;;;;;4.07;1.30;;;8.50;99.90;;;;;;4825674;29;20484;-72
2022/12/23 10:08:33;;;;;;;3.03;0.90;;;8.60;99.90;;;;;;4826568;29;20493;-72
2022/12/23 10:11:06;;;;;;;1.50;0.80;;;8.60;99.90;;;;;;4818413;29;20451;-72
2022/12/23 10:13:40;;;;;;;1.67;1.30;;;8.60;99.90;;;;;;4828437;29;20565;-72
2022/12/23 10:16:14;;;;;;;1.73;0.93;;;8.50;99.90;;;;;;4826963;29;20557;-72
2022/12/23 10:18:52;;;;;;;1.00;0.90;;;8.50;99.90;;;;;;4835096;29;20514;-72
2022/12/23 10:21:28;;;;;;;1.73;1.07;;;8.50;99.90;;;;;;4838701;29;20450;-72
2022/12/23 10:23:56;;;;;;;1.50;1.00;;;8.60;99.90;;;;;;4834031;29;20490;-72
2022/12/23 10:26:29;;;;;;;1.97;1.10;;;8.50;99.90;;;;;;4843868;29;20477;-73
2022/12/23 10:29:08;;;;;;;1.83;1.10;;;8.50;99.90;;;;;;4838220;29;21323;-72
2022/12/23 10:31:51;;;;;;;0.80;0.80;;;8.50;99.90;;;;;;4835980;29;20477;-72
2022/12/23 10:34:28;;;;;;;1.20;0.80;;;8.50;99.90;;;;;;4840621;29;20476;-72
2022/12/23 10:37:09;;;;;;;1.00;0.90;;;8.50;99.90;;;;;;4818041;29;20450;-72
2022/12/23 10:39:46;;;;;;;1.40;0.80;;;8.50;99.90;;;;;;4827322;29;20533;-72
2022/12/23 10:42:23;;;;;;;1.10;0.80;;;8.50;99.90;;;;;;4828823;29;20560;-72
2022/12/23 10:45:23;;;;;;;1.97;1.00;;;8.50;99.90;;;;;;4824850;29;20871;-72
2022/12/23 10:48:03;;;;;;;4.83;1.60;;;8.50;99.90;;;;;;4819958;29;20954;-72
2022/12/23 10:50:53;;;;;;;1.30;1.03;;;8.50;99.90;;;;;;4819295;29;20457;-72
2022/12/23 10:53:32;;;;;;;1.70;1.20;;;8.50;99.90;;;;;;4813976;29;20517;-72
2022/12/23 10:56:05;;;;;;;2.30;1.00;;;8.50;99.90;;;;;;4827479;29;20461;-72
2022/12/23 10:58:36;;;;;;;1.37;1.07;;;8.50;99.90;;;;;;4827817;29;20481;-72
2022/12/23 11:01:08;;;;;;;1.53;0.90;;;8.50;99.90;;;;;;4817316;29;20450;-69
2022/12/23 11:03:59;;;;;;;6.03;1.10;;;8.50;99.90;;;;;;4816292;29;20577;-70
2022/12/23 11:06:30;;;;;;;2.97;1.07;;;8.50;99.90;;;;;;4832234;29;20461;-70
2022/12/23 11:09:10;;;;;;;1.27;1.05;;;8.50;99.90;;;;;;4812851;29;20508;-70
2022/12/23 11:12:00;;;;;;;1.07;1.00;;;8.50;99.90;;;;;;4818058;29;20224;-70
2022/12/23 11:14:41;;;;;;;1.53;1.13;;;8.50;99.90;;;;;;4817915;29;20481;-70
2022/12/23 11:17:20;;;;;;;0.80;0.80;;;8.50;99.90;;;;;;4816238;29;20882;-72
2022/12/23 11:19:48;;;;;;;0.90;0.80;;;8.50;99.90;;;;;;4823127;29;20473;-72
2022/12/23 11:22:24;;;;;;;2.77;1.00;;;8.50;99.90;;;;;;4819202;29;20461;-72
2022/12/23 11:24:53;;;;;;;1.05;0.70;;;8.50;99.90;;;;;;4827410;29;20823;-72
2022/12/23 11:27:21;;;;;;;1.90;0.93;;;8.50;99.90;;;;;;4821218;29;20556;-72
2022/12/23 11:29:54;;;;;;;0.87;0.60;;;8.50;99.90;;;;;;4822193;29;21013;-72
2022/12/23 11:32:24;;;;;;;1.60;0.80;;;8.50;99.90;;;;;;4828173;29;20473;-72
2022/12/23 11:34:55;;;;;;;2.40;0.87;;;8.50;99.90;;;;;;4821647;29;20522;-70
2022/12/23 11:37:32;;;;;;;1.33;0.77;;;8.50;99.90;;;;;;4825758;29;20460;-70
2022/12/23 11:40:00;;;;;;;0.93;0.90;;;8.50;99.90;;;;;;4823022;29;20517;-70
2022/12/23 11:42:31;;;;;;;1.77;0.87;;;8.50;99.90;;;;;;4822957;29;20477;-70
2022/12/23 11:45:00;;;;;;;2.07;0.87;;;8.50;99.90;;;;;;4814356;29;20446;-70
2022/12/23 11:47:35;;;;;;;4.83;1.20;;;8.50;99.90;;;;;;4817713;29;20465;-70
2022/12/23 11:50:31;;;;;;;2.00;0.97;;;8.50;99.90;;;;;;4816736;29;20530;-69
2022/12/23 11:53:19;;;;;;;1.10;0.70;;;8.50;99.90;;;;;;4816047;29;20483;-70
2022/12/23 11:55:58;;;;;;;2.20;1.20;;;8.50;99.90;;;;;;4809780;29;20480;-69
2022/12/23 11:58:28;;;;;;;1.10;1.00;;;8.50;99.90;;;;;;4818517;29;20524;-70
2022/12/23 12:00:59;;;;;;;1.40;1.30;;;8.50;99.90;;;;;;4838720;29;20453;-70
2022/12/23 12:03:31;;;;;;;2.67;1.23;;;8.50;99.90;;;;;;4846690;29;20480;-70
2022/12/23 12:06:02;;;;;;;2.00;1.40;;;8.50;99.90;;;;;;4831173;29;20469;-70
2022/12/23 12:08:35;;;;;;;1.20;1.10;;;8.50;99.90;;;;;;4827492;29;21061;-70
2022/12/23 12:11:12;;;;;;;4.27;1.07;;;8.50;99.90;;;;;;4817681;29;20870;-71
2022/12/23 12:13:42;;;;;;;2.20;1.40;;;8.50;99.90;;;;;;4819718;29;20493;-72
2022/12/23 12:16:31;;;;;;;1.70;1.10;;;8.50;99.90;;;;;;4817751;29;20461;-72
2022/12/23 12:19:04;;;;;;;1.20;1.00;;;8.50;99.90;;;;;;4833140;29;20838;-72
2022/12/23 12:21:38;;;;;;;2.13;0.90;;;8.50;99.90;;;;;;4820695;29;20457;-72
2022/12/23 12:24:15;;;;;;;2.13;1.00;;;8.50;99.90;;;;;;4835026;29;20884;-72
2022/12/23 12:26:50;;;;;;;1.57;1.10;;;8.50;99.90;;;;;;4837702;29;20460;-72
2022/12/23 12:29:26;;;;;;;1.37;1.00;;;8.50;99.90;;;;;;4823565;29;20485;-72
2022/12/23 12:31:57;;;;;;;1.10;1.00;;;8.50;99.90;;;;;;4829218;29;20464;-72
2022/12/23 12:34:37;;;;;;;1.40;1.13;;;8.50;99.90;;;;;;4827845;29;20453;-72
2022/12/23 12:37:19;;;;;;;1.63;1.10;;;8.50;99.90;;;;;;4819600;29;21039;-70
2022/12/23 12:39:54;;;;;;;0.97;0.77;;;8.50;99.90;;;;;;4823747;29;20480;-71
2022/12/23 12:42:30;;;;;;;1.70;0.97;;;8.50;99.90;;;;;;4820947;29;20478;-71
2022/12/23 12:45:10;;;;;;;3.67;1.00;;;8.50;99.90;;;;;;4818641;29;20476;-70
2022/12/23 12:47:45;;;;;;;1.70;1.00;;;8.50;99.90;;;;;;4817249;29;20462;-70
2022/12/23 12:50:30;;;;;;;0.80;0.73;;;8.50;99.90;;;;;;4826966;29;20929;-70
2022/12/23 12:53:06;;;;;;;1.73;1.27;;;8.50;99.90;;;;;;4816172;29;20828;-70
2022/12/23 12:55:41;;;;;;;2.00;1.37;;;8.50;99.90;;;;;;4828481;29;20946;-72
2022/12/23 12:58:20;;;;;;;2.65;1.10;;;8.50;99.90;;;;;;4834693;29;20469;-72
2022/12/23 13:01:02;;;;;;;1.40;1.30;;;8.50;99.90;;;;;;4824901;29;20224;-73
2022/12/23 13:03:59;;;;;;;1.37;1.27;;;8.50;99.90;;;;;;4820247;29;20868;-72
2022/12/23 13:06:36;;;;;;;1.97;1.03;;;8.50;99.90;;;;;;4825890;29;20462;-72
2022/12/23 13:09:15;;;;;;;1.90;1.00;;;8.50;99.90;;;;;;4816004;29;20641;-72
2022/12/23 13:11:53;;;;;;;1.13;1.00;;;8.50;99.90;;;;;;4820407;29;20232;-72
2022/12/23 13:14:33;;;;;;;1.73;1.20;;;8.50;99.90;;;;;;4819943;29;20461;-70
2022/12/23 13:17:11;;;;;;;1.63;1.13;;;8.50;99.90;;;;;;4825204;29;20453;-71
2022/12/23 13:19:47;;;;;;;1.40;1.00;;;8.50;99.90;;;;;;4820698;29;20474;-71
2022/12/23 13:22:18;;;;;;;1.20;0.70;;;8.50;99.90;;;;;;4820161;29;20604;-71
2022/12/23 13:24:57;;;;;;;1.40;1.13;;;8.50;99.90;;;;;;4820371;29;20492;-69
2022/12/23 13:27:32;;;;;;;2.13;1.17;;;8.50;99.90;;;;;;4818320;29;20490;-71
2022/12/23 13:30:05;;;;;;;2.00;1.33;;;8.50;99.90;;;;;;4818970;29;20232;-71
2022/12/23 13:32:55;;;;;;;1.17;1.07;;;8.50;99.90;;;;;;4822154;29;20654;-70
2022/12/23 13:35:35;;;;;;;1.50;1.10;;;8.50;99.90;;;;;;4828308;29;21294;-69
2022/12/23 13:38:14;;;;;;;2.57;1.17;;;8.50;99.90;;;;;;4817170;29;20489;-70
2022/12/23 13:40:53;;;;;;;2.00;1.37;;;8.50;99.90;;;;;;4816909;29;20454;-70
2022/12/23 13:43:28;;;;;;;1.83;1.70;;;8.50;99.90;;;;;;4824875;29;20572;-70
2022/12/23 13:46:01;;;;;;;4.00;1.10;;;8.50;99.90;;;;;;4831807;29;20513;-71
2022/12/23 13:48:38;;;;;;;1.50;1.10;;;8.50;99.90;;;;;;4835005;29;20518;-70
2022/12/23 13:51:12;;;;;;;2.43;1.13;;;8.50;99.90;;;;;;4820512;29;20517;-69
2022/12/23 13:53:54;;;;;;;1.30;1.20;;;8.50;99.90;;;;;;4822512;29;20480;-70
2022/12/23 13:56:38;;;;;;;2.67;1.50;;;8.50;99.90;;;;;;4824900;29;20496;-71
2022/12/23 13:59:11;;;;;;;0.90;0.80;;;8.50;99.90;;;;;;4832422;29;20492;-70
2022/12/23 14:01:46;;;;;;;1.10;1.00;;;8.50;99.90;;;;;;4819186;29;20458;-70
2022/12/23 14:04:30;;;;;;;0.93;0.90;;;8.50;99.90;;;;;;4824208;29;20909;-71
2022/12/23 14:07:01;;;;;;;1.20;1.07;;;8.50;99.90;;;;;;4827628;29;20458;-70
2022/12/23 14:09:34;;;;;;;0.87;0.87;;;8.50;99.90;;;;;;4823182;29;20496;-71
2022/12/23 14:12:19;;;;;;;2.53;1.30;;;8.50;99.90;;;;;;4820741;29;20486;-70
2022/12/23 14:15:14;;;;;;;1.30;0.90;;;8.50;99.90;;;;;;4821802;29;20456;-70
2022/12/23 14:17:51;;;;;;;1.10;0.80;;;8.50;99.90;;;;;;4813940;29;20488;-70
2022/12/23 14:20:32;;;;;;;1.80;1.20;;;8.50;99.90;;;;;;4826020;29;20492;-72
2022/12/23 14:23:15;;;;;;;1.27;1.00;;;8.50;99.90;;;;;;4820295;29;20456;-72
2022/12/23 14:26:04;;;;;;;1.50;1.05;;;8.50;99.90;;;;;;4823224;29;20445;-73
2022/12/23 14:28:47;;;;;;;1.43;0.70;;;8.50;99.90;;;;;;4824630;29;20232;-73
2022/12/23 14:31:32;;;;;;;1.57;1.13;;;8.50;99.90;;;;;;4840706;29;20504;-72
2022/12/23 14:34:21;;;;;;;1.20;1.10;;;8.50;99.90;;;;;;4825332;29;20883;-72
2022/12/23 14:37:30;;;;;;;1.15;0.82;;;8.50;99.90;;;;;;4820743;29;20523;-72
2022/12/23 14:40:18;;;;;;;1.60;1.13;;;8.50;99.90;;;;;;4810013;29;20246;-72